sensor_id;sensor_type;location;lat;lon;timestamp;temperature;humidity
53675;DHT22;39574;50.534;8.500;2022-11-02T00:05:02;10.3;99.9
53675;DHT22;39574;50.534;8.500;2022-11-02T00:10:10;10.2;99.9
53675;DHT22;39574;50.534;8.500;2022-11-02T00:19:31;10.1;99.9
53675;DHT22;39574;50.534;8.500;2022-11-02T00:24:41;10.1;99.9
53675;DHT22;39574;50.534;8.500;2022-11-02T00:29:42;10.1;99.9
53675;DHT22;39574;50.534;8.500;2022-11-02T00:34:45;10.1;99.9
53675;DHT22;39574;50.534;8.500;2022-11-02T00:39:54;10.1;99.9
53675;DHT22;39574;50.534;8.500;2022-11-02T00:44:57;10.1;99.9
53675;DHT22;39574;50.534;8.500;2022-11-02T00:54:36;10.4;99.9
53675;DHT22;39574;50.534;8.500;2022-11-02T00:59:41;10.7;99.9
53675;DHT22;39574;50.534;8.500;2022-11-02T01:04:50;11.0;99.9
53675;DHT22;39574;50.534;8.500;2022-11-02T01:09:54;11.1;99.9
53675;DHT22;39574;50.534;8.500;2022-11-02T01:19:19;11.3;99.9
53675;DHT22;39574;50.534;8.500;2022-11-02T01:24:31;11.3;99.9
53675;DHT22;39574;50.534;8.500;2022-11-02T01:29:33;11.3;99.9
53675;DHT22;39574;50.534;8.500;2022-11-02T01:34:47;11.3;99.9
53675;DHT22;39574;50.534;8.500;2022-11-02T01:44:31;11.1;99.9
53675;DHT22;39574;50.534;8.500;2022-11-02T01:49:29;10.9;99.9
53675;DHT22;39574;50.534;8.500;2022-11-02T01:54:43;11.0;99.9
53675;DHT22;39574;50.534;8.500;2022-11-02T02:04:10;11.1;99.9
53675;DHT22;39574;50.534;8.500;2022-11-02T02:09:22;11.2;99.9
53675;DHT22;39574;50.534;8.500;2022-11-02T02:14:37;11.3;99.9
53675;DHT22;39574;50.534;8.500;2022-11-02T02:19:39;11.3;99.9
53675;DHT22;39574;50.534;8.500;2022-11-02T02:24:43;11.3;99.9
53675;DHT22;39574;50.534;8.500;2022-11-02T02:34:17;11.2;99.9
53675;DHT22;39574;50.534;8.500;2022-11-02T02:39:22;11.2;99.9
53675;DHT22;39574;50.534;8.500;2022-11-02T02:44:35;11.1;99.9
53675;DHT22;39574;50.534;8.500;2022-11-02T02:53:58;11.0;99.9
53675;DHT22;39574;50.534;8.500;2022-11-02T02:59:13;11.0;99.9
53675;DHT22;39574;50.534;8.500;2022-11-02T03:04:26;11.1;99.9
53675;DHT22;39574;50.534;8.500;2022-11-02T03:13:54;11.3;99.9
53675;DHT22;39574;50.534;8.500;2022-11-02T03:18:57;11.5;99.9
53675;DHT22;39574;50.534;8.500;2022-11-02T03:23:59;11.6;99.9
53675;DHT22;39574;50.534;8.500;2022-11-02T03:29:07;11.7;99.9
53675;DHT22;39574;50.534;8.500;2022-11-02T03:34:09;11.8;99.9
53675;DHT22;39574;50.534;8.500;2022-11-02T03:39:07;11.9;99.9
53675;DHT22;39574;50.534;8.500;2022-11-02T03:44:07;12.0;99.9
53675;DHT22;39574;50.534;8.500;2022-11-02T03:49:10;12.0;99.9
53675;DHT22;39574;50.534;8.500;2022-11-02T03:54:18;12.0;99.9
53675;DHT22;39574;50.534;8.500;2022-11-02T03:59:21;12.1;99.9
53675;DHT22;39574;50.534;8.500;2022-11-02T04:08:38;12.1;99.9
53675;DHT22;39574;50.534;8.500;2022-11-02T04:13:45;12.1;99.9
53675;DHT22;39574;50.534;8.500;2022-11-02T04:18:57;12.1;99.9
53675;DHT22;39574;50.534;8.500;2022-11-02T04:23:59;12.1;99.9
53675;DHT22;39574;50.534;8.500;2022-11-02T04:29:13;12.1;99.9
53675;DHT22;39574;50.534;8.500;2022-11-02T04:38:40;12.0;99.9
53675;DHT22;39574;50.534;8.500;2022-11-02T04:43:40;12.0;99.9
53675;DHT22;39574;50.534;8.500;2022-11-02T04:48:42;12.0;99.9
53675;DHT22;39574;50.534;8.500;2022-11-02T04:53:53;11.9;99.9
53675;DHT22;39574;50.534;8.500;2022-11-02T04:58:53;11.8;99.9
53675;DHT22;39574;50.534;8.500;2022-11-02T05:04:05;11.8;99.9
53675;DHT22;39574;50.534;8.500;2022-11-02T05:09:07;11.7;99.9
53675;DHT22;39574;50.534;8.500;2022-11-02T05:18:26;11.7;99.9
53675;DHT22;39574;50.534;8.500;2022-11-02T05:23:33;11.7;99.9
53675;DHT22;39574;50.534;8.500;2022-11-02T05:28:33;11.7;99.9
53675;DHT22;39574;50.534;8.500;2022-11-02T05:33:45;11.7;99.9
53675;DHT22;39574;50.534;8.500;2022-11-02T05:38:50;11.7;99.9
53675;DHT22;39574;50.534;8.500;2022-11-02T05:43:57;11.6;99.9
53675;DHT22;39574;50.534;8.500;2022-11-02T05:48:59;11.7;99.9
53675;DHT22;39574;50.534;8.500;2022-11-02T05:58:27;11.7;99.9
53675;DHT22;39574;50.534;8.500;2022-11-02T06:03:41;11.7;99.9
53675;DHT22;39574;50.534;8.500;2022-11-02T06:08:54;11.7;99.9
53675;DHT22;39574;50.534;8.500;2022-11-02T06:13:55;11.7;99.9
53675;DHT22;39574;50.534;8.500;2022-11-02T06:19:00;11.6;99.9
53675;DHT22;39574;50.534;8.500;2022-11-02T06:28:34;11.6;99.9
53675;DHT22;39574;50.534;8.500;2022-11-02T06:33:37;11.5;99.9
53675;DHT22;39574;50.534;8.500;2022-11-02T06:38:48;11.5;99.9
53675;DHT22;39574;50.534;8.500;2022-11-02T06:48:17;11.4;99.9
53675;DHT22;39574;50.534;8.500;2022-11-02T06:53:31;11.4;99.9
53675;DHT22;39574;50.534;8.500;2022-11-02T06:58:45;11.4;99.9
53675;DHT22;39574;50.534;8.500;2022-11-02T07:08:23;11.4;99.9
53675;DHT22;39574;50.534;8.500;2022-11-02T07:13:24;11.5;99.9
53675;DHT22;39574;50.534;8.500;2022-11-02T07:18:28;11.5;99.9
53675;DHT22;39574;50.534;8.500;2022-11-02T07:23:40;11.5;99.9
53675;DHT22;39574;50.534;8.500;2022-11-02T07:33:21;11.5;99.9
53675;DHT22;39574;50.534;8.500;2022-11-02T07:38:22;11.5;99.9
53675;DHT22;39574;50.534;8.500;2022-11-02T07:43:34;11.5;99.9
53675;DHT22;39574;50.534;8.500;2022-11-02T07:48:35;11.7;99.9
53675;DHT22;39574;50.534;8.500;2022-11-02T07:53:37;11.9;99.9
53675;DHT22;39574;50.534;8.500;2022-11-02T08:03:04;12.2;99.9
53675;DHT22;39574;50.534;8.500;2022-11-02T08:08:16;12.5;99.9
53675;DHT22;39574;50.534;8.500;2022-11-02T08:13:29;12.7;99.9
53675;DHT22;39574;50.534;8.500;2022-11-02T08:23:12;13.0;99.9
53675;DHT22;39574;50.534;8.500;2022-11-02T08:28:27;13.2;99.9
53675;DHT22;39574;50.534;8.500;2022-11-02T08:33:27;13.3;99.9
53675;DHT22;39574;50.534;8.500;2022-11-02T08:38:29;13.3;99.9
53675;DHT22;39574;50.534;8.500;2022-11-02T08:47:55;13.4;99.9
53675;DHT22;39574;50.534;8.500;2022-11-02T08:52:57;13.6;99.9
53675;DHT22;39574;50.534;8.500;2022-11-02T08:58:05;13.7;99.9
53675;DHT22;39574;50.534;8.500;2022-11-02T09:03:10;13.7;99.9
53675;DHT22;39574;50.534;8.500;2022-11-02T09:08:22;13.9;99.9
53675;DHT22;39574;50.534;8.500;2022-11-02T09:18:01;14.1;99.9
53675;DHT22;39574;50.534;8.500;2022-11-02T09:23:05;14.4;99.9
53675;DHT22;39574;50.534;8.500;2022-11-02T09:28:14;14.5;99.9
53675;DHT22;39574;50.534;8.500;2022-11-02T09:37:46;14.6;99.9
53675;DHT22;39574;50.534;8.500;2022-11-02T09:42:52;14.6;99.9
53675;DHT22;39574;50.534;8.500;2022-11-02T09:48:01;14.7;99.9
53675;DHT22;39574;50.534;8.500;2022-11-02T09:53:16;14.8;99.9
53675;DHT22;39574;50.534;8.500;2022-11-02T10:02:46;14.8;99.9
53675;DHT22;39574;50.534;8.500;2022-11-02T10:07:57;14.8;99.9
53675;DHT22;39574;50.534;8.500;2022-11-02T10:13:01;14.7;99.9
53675;DHT22;39574;50.534;8.500;2022-11-02T10:18:12;14.8;99.9
53675;DHT22;39574;50.534;8.500;2022-11-02T10:23:13;14.9;99.9
53675;DHT22;39574;50.534;8.500;2022-11-02T10:32:30;14.8;99.9
53675;DHT22;39574;50.534;8.500;2022-11-02T10:37:42;14.7;99.9
53675;DHT22;39574;50.534;8.500;2022-11-02T10:42:54;14.7;99.9
53675;DHT22;39574;50.534;8.500;2022-11-02T10:48:05;14.8;99.9
53675;DHT22;39574;50.534;8.500;2022-11-02T10:53:07;14.7;99.9
53675;DHT22;39574;50.534;8.500;2022-11-02T11:02:33;14.9;99.9
53675;DHT22;39574;50.534;8.500;2022-11-02T11:07:33;14.9;99.9
53675;DHT22;39574;50.534;8.500;2022-11-02T11:12:44;15.1;99.9
53675;DHT22;39574;50.534;8.500;2022-11-02T11:17:56;15.5;99.9
53675;DHT22;39574;50.534;8.500;2022-11-02T11:23:28;15.8;99.9
53675;DHT22;39574;50.534;8.500;2022-11-02T11:28:07;16.2;99.9
53675;DHT22;39574;50.534;8.500;2022-11-02T11:37:19;15.9;99.9
53675;DHT22;39574;50.534;8.500;2022-11-02T11:42:38;15.5;99.9
53675;DHT22;39574;50.534;8.500;2022-11-02T11:47:43;14.9;99.9
53675;DHT22;39574;50.534;8.500;2022-11-02T11:53:15;14.7;99.9
53675;DHT22;39574;50.534;8.500;2022-11-02T12:02:24;15.0;99.9
53675;DHT22;39574;50.534;8.500;2022-11-02T12:07:37;15.1;99.9
53675;DHT22;39574;50.534;8.500;2022-11-02T12:12:43;15.2;99.9
53675;DHT22;39574;50.534;8.500;2022-11-02T12:17:55;15.1;99.9
53675;DHT22;39574;50.534;8.500;2022-11-02T12:27:23;15.1;99.9
53675;DHT22;39574;50.534;8.500;2022-11-02T12:32:35;15.1;99.9
53675;DHT22;39574;50.534;8.500;2022-11-02T12:37:46;15.4;99.9
53675;DHT22;39574;50.534;8.500;2022-11-02T12:42:54;16.2;99.9
53675;DHT22;39574;50.534;8.500;2022-11-02T12:52:21;16.8;99.9
53675;DHT22;39574;50.534;8.500;2022-11-02T12:57:29;17.5;99.9
53675;DHT22;39574;50.534;8.500;2022-11-02T13:02:30;18.0;99.9
53675;DHT22;39574;50.534;8.500;2022-11-02T13:07:41;18.1;99.9
53675;DHT22;39574;50.534;8.500;2022-11-02T13:12:43;18.4;99.9
53675;DHT22;39574;50.534;8.500;2022-11-02T13:22:10;18.7;99.9
53675;DHT22;39574;50.534;8.500;2022-11-02T13:27:29;18.9;99.9
53675;DHT22;39574;50.534;8.500;2022-11-02T13:32:41;19.0;99.9
53675;DHT22;39574;50.534;8.500;2022-11-02T13:37:42;19.2;99.9
53675;DHT22;39574;50.534;8.500;2022-11-02T13:47:14;19.2;99.9
53675;DHT22;39574;50.534;8.500;2022-11-02T13:52:21;19.1;99.9
53675;DHT22;39574;50.534;8.500;2022-11-02T13:57:28;18.8;99.9
53675;DHT22;39574;50.534;8.500;2022-11-02T14:02:39;18.5;99.9
53675;DHT22;39574;50.534;8.500;2022-11-02T14:07:40;18.3;99.9
53675;DHT22;39574;50.534;8.500;2022-11-02T14:17:13;18.9;99.9
53675;DHT22;39574;50.534;8.500;2022-11-02T14:22:17;19.3;99.9
53675;DHT22;39574;50.534;8.500;2022-11-02T14:27:26;19.5;99.9
53675;DHT22;39574;50.534;8.500;2022-11-02T14:32:20;19.5;99.9
53675;DHT22;39574;50.534;8.500;2022-11-02T14:37:26;19.3;99.9
53675;DHT22;39574;50.534;8.500;2022-11-02T14:42:37;19.1;99.9
53675;DHT22;39574;50.534;8.500;2022-11-02T14:52:04;18.9;99.9
53675;DHT22;39574;50.534;8.500;2022-11-02T14:57:14;18.4;99.9
53675;DHT22;39574;50.534;8.500;2022-11-02T15:02:19;17.8;99.9
53675;DHT22;39574;50.534;8.500;2022-11-02T15:07:33;17.3;99.9
53675;DHT22;39574;50.534;8.500;2022-11-02T15:12:34;17.0;99.9
53675;DHT22;39574;50.534;8.500;2022-11-02T15:22:24;16.2;99.9
53675;DHT22;39574;50.534;8.500;2022-11-02T15:27:10;15.7;99.9
53675;DHT22;39574;50.534;8.500;2022-11-02T15:32:14;15.3;99.9
53675;DHT22;39574;50.534;8.500;2022-11-02T15:37:23;15.1;99.9
53675;DHT22;39574;50.534;8.500;2022-11-02T15:42:31;14.9;99.9
53675;DHT22;39574;50.534;8.500;2022-11-02T15:51:54;14.7;99.9
53675;DHT22;39574;50.534;8.500;2022-11-02T15:56:59;14.5;99.9
53675;DHT22;39574;50.534;8.500;2022-11-02T16:02:11;14.3;99.9
53675;DHT22;39574;50.534;8.500;2022-11-02T16:07:10;14.1;99.9
53675;DHT22;39574;50.534;8.500;2022-11-02T16:12:20;13.8;99.9
53675;DHT22;39574;50.534;8.500;2022-11-02T16:22:01;13.6;99.9
53675;DHT22;39574;50.534;8.500;2022-11-02T16:27:03;13.4;99.9
53675;DHT22;39574;50.534;8.500;2022-11-02T16:32:18;13.2;99.9
53675;DHT22;39574;50.534;8.500;2022-11-02T16:41:39;13.1;99.9
53675;DHT22;39574;50.534;8.500;2022-11-02T16:46:46;12.9;99.9
53675;DHT22;39574;50.534;8.500;2022-11-02T16:51:56;12.6;99.9
53675;DHT22;39574;50.534;8.500;2022-11-02T16:57:11;12.4;99.9
53675;DHT22;39574;50.534;8.500;2022-11-02T17:02:09;12.1;99.9
53675;DHT22;39574;50.534;8.500;2022-11-02T17:07:12;11.9;99.9
53675;DHT22;39574;50.534;8.500;2022-11-02T17:16:41;11.7;99.9
53675;DHT22;39574;50.534;8.500;2022-11-02T17:22:02;11.3;99.9
53675;DHT22;39574;50.534;8.500;2022-11-02T17:27:22;11.0;99.9
53675;DHT22;39574;50.534;8.500;2022-11-02T17:32:10;10.9;99.9
53675;DHT22;39574;50.534;8.500;2022-11-02T17:37:17;10.9;99.9
53675;DHT22;39574;50.534;8.500;2022-11-02T17:46:33;10.7;99.9
53675;DHT22;39574;50.534;8.500;2022-11-02T17:51:45;10.7;99.9
53675;DHT22;39574;50.534;8.500;2022-11-02T17:56:49;10.7;99.9
53675;DHT22;39574;50.534;8.500;2022-11-02T18:02:04;10.6;99.9
53675;DHT22;39574;50.534;8.500;2022-11-02T18:11:29;10.6;99.9
53675;DHT22;39574;50.534;8.500;2022-11-02T18:16:39;10.4;99.9
53675;DHT22;39574;50.534;8.500;2022-11-02T18:21:44;10.3;99.9
53675;DHT22;39574;50.534;8.500;2022-11-02T18:26:58;10.1;99.9
53675;DHT22;39574;50.534;8.500;2022-11-02T18:36:35;9.9;99.9
53675;DHT22;39574;50.534;8.500;2022-11-02T18:41:40;9.8;99.9
53675;DHT22;39574;50.534;8.500;2022-11-02T18:46:51;9.5;99.9
53675;DHT22;39574;50.534;8.500;2022-11-02T18:56:20;9.3;99.9
53675;DHT22;39574;50.534;8.500;2022-11-02T19:01:34;9.2;99.9
53675;DHT22;39574;50.534;8.500;2022-11-02T19:06:47;9.1;99.9
53675;DHT22;39574;50.534;8.500;2022-11-02T19:11:50;9.0;99.9
53675;DHT22;39574;50.534;8.500;2022-11-02T19:21:14;8.7;99.9
53675;DHT22;39574;50.534;8.500;2022-11-02T19:26:28;8.6;99.9
53675;DHT22;39574;50.534;8.500;2022-11-02T19:31:32;8.8;99.9
53675;DHT22;39574;50.534;8.500;2022-11-02T19:36:43;8.7;99.9
53675;DHT22;39574;50.534;8.500;2022-11-02T19:46:21;8.7;99.9
53675;DHT22;39574;50.534;8.500;2022-11-02T19:51:34;8.6;99.9
53675;DHT22;39574;50.534;8.500;2022-11-02T20:01:19;8.8;99.9
53675;DHT22;39574;50.534;8.500;2022-11-02T20:06:33;8.9;99.9
53675;DHT22;39574;50.534;8.500;2022-11-02T20:16:03;9.1;99.9
53675;DHT22;39574;50.534;8.500;2022-11-02T20:21:12;9.2;99.9
53675;DHT22;39574;50.534;8.500;2022-11-02T20:26:12;9.1;99.9
53675;DHT22;39574;50.534;8.500;2022-11-02T20:31:12;9.1;99.9
53675;DHT22;39574;50.534;8.500;2022-11-02T20:36:26;9.1;99.9
53675;DHT22;39574;50.534;8.500;2022-11-02T20:41:28;8.9;99.9
53675;DHT22;39574;50.534;8.500;2022-11-02T20:50:55;8.7;99.9
53675;DHT22;39574;50.534;8.500;2022-11-02T20:55:55;8.5;99.9
53675;DHT22;39574;50.534;8.500;2022-11-02T21:01:06;8.6;99.9
53675;DHT22;39574;50.534;8.500;2022-11-02T21:06:07;8.7;99.9
53675;DHT22;39574;50.534;8.500;2022-11-02T21:11:09;8.7;99.9
53675;DHT22;39574;50.534;8.500;2022-11-02T21:16:18;8.7;99.9
53675;DHT22;39574;50.534;8.500;2022-11-02T21:26:04;8.8;99.9
53675;DHT22;39574;50.534;8.500;2022-11-02T21:31:17;8.8;99.9
53675;DHT22;39574;50.534;8.500;2022-11-02T21:40:45;8.8;99.9
53675;DHT22;39574;50.534;8.500;2022-11-02T21:45:49;8.7;99.9
53675;DHT22;39574;50.534;8.500;2022-11-02T21:50:57;8.6;99.9
53675;DHT22;39574;50.534;8.500;2022-11-02T21:56:11;8.6;99.9
53675;DHT22;39574;50.534;8.500;2022-11-02T22:01:13;8.6;99.9
53675;DHT22;39574;50.534;8.500;2022-11-02T22:10:28;8.3;99.9
53675;DHT22;39574;50.534;8.500;2022-11-02T22:15:39;8.3;99.9
53675;DHT22;39574;50.534;8.500;2022-11-02T22:20:51;8.3;99.9
53675;DHT22;39574;50.534;8.500;2022-11-02T22:25:55;8.3;99.9
53675;DHT22;39574;50.534;8.500;2022-11-02T22:31:03;8.4;99.9
53675;DHT22;39574;50.534;8.500;2022-11-02T22:36:03;8.3;99.9
53675;DHT22;39574;50.534;8.500;2022-11-02T22:45:31;8.3;99.9
53675;DHT22;39574;50.534;8.500;2022-11-02T22:50:43;8.4;99.9
53675;DHT22;39574;50.534;8.500;2022-11-02T22:55:45;8.5;99.9
53675;DHT22;39574;50.534;8.500;2022-11-02T23:00:56;8.5;99.9
53675;DHT22;39574;50.534;8.500;2022-11-02T23:10:26;8.5;99.9
53675;DHT22;39574;50.534;8.500;2022-11-02T23:15:37;8.4;99.9
53675;DHT22;39574;50.534;8.500;2022-11-02T23:20:39;8.2;99.9
53675;DHT22;39574;50.534;8.500;2022-11-02T23:25:40;8.1;99.9
53675;DHT22;39574;50.534;8.500;2022-11-02T23:30:49;8.1;99.9
53675;DHT22;39574;50.534;8.500;2022-11-02T23:35:52;8.2;99.9
53675;DHT22;39574;50.534;8.500;2022-11-02T23:45:20;8.2;99.9
53675;DHT22;39574;50.534;8.500;2022-11-02T23:50:31;8.2;99.9
53675;DHT22;39574;50.534;8.500;2022-11-02T23:55:34;8.1;99.9
